sensor_id;sensor_type;location;lat;lon;timestamp;pressure;altitude;pressure_sealevel;temperature;humidity
50087;BME280;35967;50.718;7.050;2024-01-15T00:08:24;99549.72;;;1.32;98.46
50087;BME280;35967;50.718;7.050;2024-01-15T00:18:29;99544.66;;;1.28;99.21
50087;BME280;35967;50.718;7.050;2024-01-15T00:28:32;99535.41;;;1.00;100.00
50087;BME280;35967;50.718;7.050;2024-01-15T00:38:36;99528.69;;;0.79;100.00
50087;BME280;35967;50.718;7.050;2024-01-15T00:48:40;99534.59;;;0.64;100.00
50087;BME280;35967;50.718;7.050;2024-01-15T00:58:44;99522.75;;;0.51;100.00
50087;BME280;35967;50.718;7.050;2024-01-15T01:08:48;99527.00;;;0.62;100.00
50087;BME280;35967;50.718;7.050;2024-01-15T01:18:53;99512.63;;;0.66;100.00
50087;BME280;35967;50.718;7.050;2024-01-15T01:28:56;99513.47;;;0.81;100.00
50087;BME280;35967;50.718;7.050;2024-01-15T01:39:01;99522.75;;;0.72;100.00
50087;BME280;35967;50.718;7.050;2024-01-15T01:49:04;99516.03;;;0.62;100.00
50087;BME280;35967;50.718;7.050;2024-01-15T01:59:10;99521.91;;;0.78;100.00
50087;BME280;35967;50.718;7.050;2024-01-15T02:09:14;99516.84;;;0.89;100.00
50087;BME280;35967;50.718;7.050;2024-01-15T02:19:19;99526.13;;;0.90;100.00
50087;BME280;35967;50.718;7.050;2024-01-15T02:29:23;99524.44;;;0.83;100.00
50087;BME280;35967;50.718;7.050;2024-01-15T02:39:26;99523.63;;;0.73;100.00
50087;BME280;35967;50.718;7.050;2024-01-15T02:49:32;99523.63;;;0.77;100.00
50087;BME280;35967;50.718;7.050;2024-01-15T02:59:35;99528.66;;;0.74;100.00
50087;BME280;35967;50.718;7.050;2024-01-15T03:09:39;99521.06;;;0.74;100.00
50087;BME280;35967;50.718;7.050;2024-01-15T03:19:42;99522.75;;;0.75;100.00
50087;BME280;35967;50.718;7.050;2024-01-15T03:29:47;99510.97;;;0.76;100.00
50087;BME280;35967;50.718;7.050;2024-01-15T03:39:50;99510.94;;;0.70;100.00
50087;BME280;35967;50.718;7.050;2024-01-15T03:49:55;99510.97;;;0.67;100.00
50087;BME280;35967;50.718;7.050;2024-01-15T03:59:58;99516.03;;;0.77;100.00
50087;BME280;35967;50.718;7.050;2024-01-15T04:10:03;99504.19;;;0.72;100.00
50087;BME280;35967;50.718;7.050;2024-01-15T04:20:07;99499.97;;;0.75;100.00
50087;BME280;35967;50.718;7.050;2024-01-15T04:30:13;99494.91;;;0.74;100.00
50087;BME280;35967;50.718;7.050;2024-01-15T04:40:16;99475.50;;;0.68;100.00
50087;BME280;35967;50.718;7.050;2024-01-15T04:50:21;99472.97;;;0.57;100.00
50087;BME280;35967;50.718;7.050;2024-01-15T05:00:24;99477.19;;;0.69;100.00
50087;BME280;35967;50.718;7.050;2024-01-15T05:10:28;99472.13;;;0.83;100.00
50087;BME280;35967;50.718;7.050;2024-01-15T05:20:31;99462.84;;;0.76;100.00
50087;BME280;35967;50.718;7.050;2024-01-15T05:30:36;99461.13;;;0.72;100.00
50087;BME280;35967;50.718;7.050;2024-01-15T05:40:39;99462.00;;;0.68;100.00
50087;BME280;35967;50.718;7.050;2024-01-15T05:50:43;99461.16;;;0.64;100.00
50087;BME280;35967;50.718;7.050;2024-01-15T06:00:47;99447.66;;;0.67;100.00
50087;BME280;35967;50.718;7.050;2024-01-15T06:10:53;99451.03;;;0.70;100.00
50087;BME280;35967;50.718;7.050;2024-01-15T06:20:58;99447.59;;;0.84;100.00
50087;BME280;35967;50.718;7.050;2024-01-15T06:31:03;99437.50;;;0.74;100.00
50087;BME280;35967;50.718;7.050;2024-01-15T06:41:08;99438.31;;;0.83;100.00
50087;BME280;35967;50.718;7.050;2024-01-15T06:51:13;99434.09;;;0.86;100.00
50087;BME280;35967;50.718;7.050;2024-01-15T07:01:16;99430.75;;;0.69;100.00
50087;BME280;35967;50.718;7.050;2024-01-15T07:11:21;99424.84;;;0.76;100.00
50087;BME280;35967;50.718;7.050;2024-01-15T07:21:24;99429.06;;;0.78;100.00
50087;BME280;35967;50.718;7.050;2024-01-15T07:31:28;99423.13;;;0.86;100.00
50087;BME280;35967;50.718;7.050;2024-01-15T07:41:32;99418.03;;;0.93;100.00
50087;BME280;35967;50.718;7.050;2024-01-15T07:51:37;99417.16;;;0.99;100.00
50087;BME280;35967;50.718;7.050;2024-01-15T08:01:42;99418.63;;;1.51;100.00
50087;BME280;35967;50.718;7.050;2024-01-15T08:11:47;99421.34;;;1.11;100.00
50087;BME280;35967;50.718;7.050;2024-01-15T08:21:51;99423.88;;;1.16;100.00
50087;BME280;35967;50.718;7.050;2024-01-15T08:31:56;99426.38;;;1.22;100.00
50087;BME280;35967;50.718;7.050;2024-01-15T08:41:59;99417.03;;;1.35;100.00
50087;BME280;35967;50.718;7.050;2024-01-15T08:52:03;99414.47;;;1.42;100.00
50087;BME280;35967;50.718;7.050;2024-01-15T09:02:07;99416.19;;;1.34;100.00
50087;BME280;35967;50.718;7.050;2024-01-15T09:12:12;99417.03;;;1.38;100.00
50087;BME280;35967;50.718;7.050;2024-01-15T09:22:17;99422.06;;;1.41;100.00
50087;BME280;35967;50.718;7.050;2024-01-15T09:32:22;99414.38;;;1.58;100.00
50087;BME280;35967;50.718;7.050;2024-01-15T09:42:25;99428.84;;;1.44;100.00
50087;BME280;35967;50.718;7.050;2024-01-15T09:52:31;99427.22;;;1.16;100.00
50087;BME280;35967;50.718;7.050;2024-01-15T10:02:37;99434.81;;;1.21;100.00
50087;BME280;35967;50.718;7.050;2024-01-15T10:12:43;99447.63;;;0.74;100.00
50087;BME280;35967;50.718;7.050;2024-01-15T10:22:48;99452.72;;;0.76;100.00
50087;BME280;35967;50.718;7.050;2024-01-15T10:32:58;99448.47;;;0.72;100.00
50087;BME280;35967;50.718;7.050;2024-01-15T10:43:03;99455.25;;;0.67;100.00
50087;BME280;35967;50.718;7.050;2024-01-15T10:53:09;99455.22;;;0.77;100.00
50087;BME280;35967;50.718;7.050;2024-01-15T11:03:14;99452.69;;;0.77;100.00
50087;BME280;35967;50.718;7.050;2024-01-15T11:13:21;99453.56;;;0.56;100.00
50087;BME280;35967;50.718;7.050;2024-01-15T11:23:42;99456.09;;;0.56;100.00
50087;BME280;35967;50.718;7.050;2024-01-15T11:33:49;99458.63;;;0.61;100.00
50087;BME280;35967;50.718;7.050;2024-01-15T11:43:53;99456.09;;;0.52;100.00
50087;BME280;35967;50.718;7.050;2024-01-15T11:53:59;99466.22;;;0.59;100.00
50087;BME280;35967;50.718;7.050;2024-01-15T12:04:05;99474.63;;;0.77;100.00
50087;BME280;35967;50.718;7.050;2024-01-15T12:14:10;99468.72;;;0.90;100.00
50087;BME280;35967;50.718;7.050;2024-01-15T12:24:13;99462.78;;;0.94;100.00
50087;BME280;35967;50.718;7.050;2024-01-15T12:34:18;99465.31;;;0.99;100.00
50087;BME280;35967;50.718;7.050;2024-01-15T12:44:22;99449.25;;;1.08;100.00
50087;BME280;35967;50.718;7.050;2024-01-15T12:54:27;99473.63;;;1.46;100.00
50087;BME280;35967;50.718;7.050;2024-01-15T13:04:30;99479.59;;;1.34;100.00
50087;BME280;35967;50.718;7.050;2024-01-15T13:14:36;99480.41;;;1.39;100.00
50087;BME280;35967;50.718;7.050;2024-01-15T13:24:39;99474.50;;;1.39;100.00
50087;BME280;35967;50.718;7.050;2024-01-15T13:34:44;99495.66;;;1.25;100.00
50087;BME280;35967;50.718;7.050;2024-01-15T13:44:47;99506.66;;;1.20;100.00
50087;BME280;35967;50.718;7.050;2024-01-15T13:54:51;99499.84;;;1.36;100.00
50087;BME280;35967;50.718;7.050;2024-01-15T14:04:55;99500.75;;;1.22;100.00
50087;BME280;35967;50.718;7.050;2024-01-15T14:14:59;99524.44;;;1.15;100.00
50087;BME280;35967;50.718;7.050;2024-01-15T14:25:04;99529.47;;;1.21;100.00
50087;BME280;35967;50.718;7.050;2024-01-15T14:35:08;99548.06;;;1.02;100.00
50087;BME280;35967;50.718;7.050;2024-01-15T14:45:12;99554.03;;;0.91;100.00
50087;BME280;35967;50.718;7.050;2024-01-15T14:55:17;99567.53;;;0.87;100.00
50087;BME280;35967;50.718;7.050;2024-01-15T15:05:20;99584.41;;;0.70;100.00
50087;BME280;35967;50.718;7.050;2024-01-15T15:15:25;99608.06;;;0.75;100.00
50087;BME280;35967;50.718;7.050;2024-01-15T15:25:28;99613.13;;;0.75;100.00
50087;BME280;35967;50.718;7.050;2024-01-15T15:35:32;99630.00;;;0.68;100.00
50087;BME280;35967;50.718;7.050;2024-01-15T15:45:35;99647.72;;;0.68;100.00
50087;BME280;35967;50.718;7.050;2024-01-15T15:55:40;99671.34;;;0.61;100.00
50087;BME280;35967;50.718;7.050;2024-01-15T16:05:43;99678.13;;;0.68;100.00
50087;BME280;35967;50.718;7.050;2024-01-15T16:15:55;99711.00;;;0.60;100.00
50087;BME280;35967;50.718;7.050;2024-01-15T16:26:18;99714.41;;;0.67;100.00
50087;BME280;35967;50.718;7.050;2024-01-15T16:36:23;99732.09;;;0.56;100.00
50087;BME280;35967;50.718;7.050;2024-01-15T16:46:27;99736.31;;;0.59;100.00
50087;BME280;35967;50.718;7.050;2024-01-15T16:56:32;99755.72;;;0.55;100.00
50087;BME280;35967;50.718;7.050;2024-01-15T17:06:35;99769.28;;;0.62;100.00
50087;BME280;35967;50.718;7.050;2024-01-15T17:16:40;99775.16;;;0.62;100.00
50087;BME280;35967;50.718;7.050;2024-01-15T17:26:43;99775.16;;;0.55;100.00
50087;BME280;35967;50.718;7.050;2024-01-15T17:36:49;99787.75;;;0.49;100.00
50087;BME280;35967;50.718;7.050;2024-01-15T17:46:52;99810.50;;;0.38;100.00
50087;BME280;35967;50.718;7.050;2024-01-15T17:56:58;99807.06;;;0.29;100.00
50087;BME280;35967;50.718;7.050;2024-01-15T18:07:01;99820.59;;;0.31;100.00
50087;BME280;35967;50.718;7.050;2024-01-15T18:17:06;99834.09;;;0.30;100.00
50087;BME280;35967;50.718;7.050;2024-01-15T18:27:09;99866.09;;;0.22;100.00
50087;BME280;35967;50.718;7.050;2024-01-15T18:37:14;99872.88;;;0.29;100.00
50087;BME280;35967;50.718;7.050;2024-01-15T18:47:17;99883.00;;;0.29;100.00
50087;BME280;35967;50.718;7.050;2024-01-15T18:57:22;99888.94;;;0.33;100.00
50087;BME280;35967;50.718;7.050;2024-01-15T19:07:25;99893.97;;;0.28;100.00
50087;BME280;35967;50.718;7.050;2024-01-15T19:17:30;99905.78;;;0.26;100.00
50087;BME280;35967;50.718;7.050;2024-01-15T19:27:34;99903.28;;;0.31;100.00
50087;BME280;35967;50.718;7.050;2024-01-15T19:37:42;99914.19;;;0.22;100.00
50087;BME280;35967;50.718;7.050;2024-01-15T19:47:46;99917.53;;;0.21;100.00
50087;BME280;35967;50.718;7.050;2024-01-15T19:57:51;99930.97;;;0.14;100.00
50087;BME280;35967;50.718;7.050;2024-01-15T20:07:54;99937.75;;;0.17;100.00
50087;BME280;35967;50.718;7.050;2024-01-15T20:17:58;99946.25;;;0.22;100.00
50087;BME280;35967;50.718;7.050;2024-01-15T20:28:02;99960.50;;;0.15;100.00
50087;BME280;35967;50.718;7.050;2024-01-15T20:38:06;99968.06;;;0.10;100.00
50087;BME280;35967;50.718;7.050;2024-01-15T20:48:09;99984.16;;;0.20;100.00
50087;BME280;35967;50.718;7.050;2024-01-15T20:58:20;99984.25;;;0.29;100.00
50087;BME280;35967;50.718;7.050;2024-01-15T21:08:23;99986.88;;;0.40;100.00
50087;BME280;35967;50.718;7.050;2024-01-15T21:18:28;99998.75;;;0.46;100.00
50087;BME280;35967;50.718;7.050;2024-01-15T21:28:31;100006.41;;;0.52;100.00
50087;BME280;35967;50.718;7.050;2024-01-15T21:38:36;100018.16;;;0.45;100.00
50087;BME280;35967;50.718;7.050;2024-01-15T21:48:39;100015.69;;;0.50;100.00
50087;BME280;35967;50.718;7.050;2024-01-15T21:58:45;100018.25;;;0.56;100.00
50087;BME280;35967;50.718;7.050;2024-01-15T22:08:48;100030.75;;;0.38;100.00
50087;BME280;35967;50.718;7.050;2024-01-15T22:18:54;100040.91;;;0.41;100.00
50087;BME280;35967;50.718;7.050;2024-01-15T22:29:03;100059.63;;;0.57;100.00
50087;BME280;35967;50.718;7.050;2024-01-15T22:39:08;100061.44;;;0.70;100.00
50087;BME280;35967;50.718;7.050;2024-01-15T22:49:11;100066.59;;;0.80;100.00
50087;BME280;35967;50.718;7.050;2024-01-15T22:59:16;100079.22;;;0.78;100.00
50087;BME280;35967;50.718;7.050;2024-01-15T23:09:24;100082.53;;;0.72;100.00
50087;BME280;35967;50.718;7.050;2024-01-15T23:19:28;100091.97;;;0.89;100.00
50087;BME280;35967;50.718;7.050;2024-01-15T23:29:32;100100.31;;;0.75;100.00
50087;BME280;35967;50.718;7.050;2024-01-15T23:39:37;100102.81;;;0.71;100.00
50087;BME280;35967;50.718;7.050;2024-01-15T23:49:41;100106.16;;;0.68;100.00
50087;BME280;35967;50.718;7.050;2024-01-15T23:59:45;100101.09;;;0.67;100.00
